Jennings, Kansas
Current Conditions -  °F | °C
As of 6:53 PM on Monday 22 Dec 2014 (Local Time) from KHLC Reporting Station
Clear Clear  
Wind Chill: 32°   Ceiling: Unl
Heat Index: 38°   Visibility: 10mi
Dew Point: 23°   Wind: 8mph
Humidity: 55%   Direction: 270°W
Pressure: 29.61"   Gusts: NA
Location:  39.68°N, 100.29°W
Report Text: KHLC 230053Z AUTO 27007KT 10SM CLR 03/M05 A2961 RMK AO2 SLP034 T00331050
Loading
Personal Weather Stations






























Interactive Weather Map New forecast layout! Learn more

10-Day Weather Forecast

Advertisements
Track Severe Weather on mobile